Airfield :
LOGIN :

Register | Disclaimer

   EN    FR    IT 

 










Legend :    VFR   Marginal VFR   IFR   Intensive IFR   Very Intensive IFR
Visi :
Ceiling :
>= 8 km
>= 3000ft
5 to 8 km
1000 to 3000 ft
1500m to 5 km
500 to 1000 ft
800 to 1500m
200 to 500 ft
< 800m
< 200 ft
Symbols :   Thunderstorms  Fog  Heavy snow  Heavy precipitations  Wind > 20 kt
SIGMETs :     Misc.  Thunderstorms  Icing  Turbulence  Mountain Waves  Volcanic Ashes







- Airport Elevation : 42 ft
- IATA code : KGD


UMKK - Khrabrava - Kaliningrad

CURRENT METAR :
  • 250430Z 15002MPS 9999 SCT002 13/13 Q1027 R24/19//95 NOSIG RMK QBB060 OBST OBSC QFE769/1025

EXPIRED METARs :
  • 250400Z 00000MPS 9000 0750E R24/0750D PRFG SCT001 11/11 Q1027 R24/19//95 NOSIG RMK QBB050 OBST OBSC QFE769/1025
  • 250330Z 00000MPS 7000 BCFG SCT001 11/10 Q1027 R24/19//95 NOSIG RMK QBB040 OBST OBSC QFE769/1025
  • 250300Z 00000MPS 7000 0450E R24/0700U PRFG SCT001 11/11 Q1026 R24/19//95 NOSIG RMK QBB040 OBST OBSC QFE769/1025
  • 250230Z 23001MPS 9000 SCT001 12/12 Q1026 R24/19//95 NOSIG RMK QBB040 OBST OBSC QFE769/1025
  • 250200Z 24001MPS 8000 0650E R24/1400U PRFG BKN001 12/12 Q1026 R24/19//95 NOSIG RMK QBB040 OBST OBSC QFE769/1025

TAF TAF UMKK
Valid from the 25 at 03:00 until the 26 at 03:00 UTC


250157Z 2503/2603 VRB01MPS 3100 BR MIFG BKN002
TEMPO 2503/2505 0300 FG
BECMG 2505/2507 9999 NSW SCT020
TEMPO 2507/2512 12003MPS
BECMG 2514/2516 05003G08MPS
TEMPO 2518/2603 VRB01MPS
No reported NOTAMs for that airfield.



MET'MAP, your aeronautical weather chart ! - Copyright ORBIFLY December 2007 - Disclaimer

ORBIFLY MET'MAP TEAM :

Programming & Development : Alexandra Zaïnal
Concept & Development : Baudouin d'Aumeries
Co-Development & Prog : Marc-Olivier Méhu
Technical & hardware support : Manuel Goepfert

Contact : metmap@orbifly.com




SOURCES & CREDITS :

   NOAA